createdAt,value
2023-06-02T00:00:10.891Z,994.89
2023-06-02T00:01:10.916Z,994.86
2023-06-02T00:02:10.919Z,994.87
2023-06-02T00:03:10.899Z,994.86
2023-06-02T00:04:10.879Z,994.93
2023-06-02T00:05:10.895Z,994.90
2023-06-02T00:06:10.891Z,994.86
2023-06-02T00:07:10.841Z,994.96
2023-06-02T00:08:10.830Z,994.86
2023-06-02T00:09:10.867Z,994.90
2023-06-02T00:10:10.816Z,994.93
2023-06-02T00:11:10.832Z,994.87
2023-06-02T00:12:10.795Z,994.92
2023-06-02T00:13:10.793Z,994.93
2023-06-02T00:14:10.791Z,994.91
2023-06-02T00:15:10.809Z,994.91
2023-06-02T00:16:10.809Z,994.92
2023-06-02T00:17:10.770Z,994.94
2023-06-02T00:18:10.759Z,995.04
2023-06-02T00:19:10.755Z,994.87
2023-06-02T00:20:10.802Z,994.95
2023-06-02T00:21:10.748Z,994.90
2023-06-02T00:22:10.725Z,994.91
2023-06-02T00:23:10.729Z,994.88
2023-06-02T00:24:10.779Z,994.89
2023-06-02T00:25:10.734Z,994.87
2023-06-02T00:26:10.711Z,994.92
2023-06-02T00:27:10.694Z,994.93
2023-06-02T00:28:10.689Z,994.89
2023-06-02T00:29:10.712Z,994.81
2023-06-02T00:30:10.698Z,994.89
2023-06-02T00:31:10.683Z,994.91
2023-06-02T00:32:10.652Z,994.88
2023-06-02T00:33:10.647Z,994.84
2023-06-02T00:34:10.663Z,994.82
2023-06-02T00:35:10.634Z,994.86
2023-06-02T00:36:10.942Z,994.84
2023-06-02T00:37:10.618Z,994.82
2023-06-02T00:38:10.628Z,994.80
2023-06-02T00:39:10.635Z,994.80
2023-06-02T00:40:10.621Z,994.80
2023-06-02T00:41:10.596Z,994.77
2023-06-02T00:42:10.588Z,994.72
2023-06-02T00:43:10.606Z,994.79
2023-06-02T00:44:10.591Z,994.72
2023-06-02T00:45:10.563Z,994.70
2023-06-02T00:46:10.814Z,994.71
2023-06-02T00:47:10.543Z,994.70
2023-06-02T00:48:10.559Z,994.71
2023-06-02T00:49:10.561Z,994.72
2023-06-02T00:50:10.529Z,994.74
2023-06-02T00:51:10.516Z,994.79
2023-06-02T00:52:10.539Z,994.75
2023-06-02T00:53:10.528Z,994.75
2023-06-02T00:54:10.549Z,994.75
2023-06-02T00:55:10.483Z,994.67
2023-06-02T00:56:10.482Z,994.67
2023-06-02T00:57:10.475Z,994.72
2023-06-02T00:58:10.510Z,994.73
2023-06-02T00:59:10.453Z,994.75
2023-06-02T01:00:10.447Z,994.70
2023-06-02T01:01:10.476Z,994.74
2023-06-02T01:02:10.452Z,994.73
2023-06-02T01:03:10.470Z,994.72
2023-06-02T01:04:10.413Z,994.72
2023-06-02T01:05:10.418Z,994.72
2023-06-02T01:06:10.399Z,994.75
2023-06-02T01:07:10.425Z,994.76
2023-06-02T01:08:10.381Z,994.72
2023-06-02T01:09:10.380Z,994.69
2023-06-02T01:10:10.376Z,994.75
2023-06-02T01:11:10.369Z,994.75
2023-06-02T01:12:10.509Z,994.69
2023-06-02T01:13:10.363Z,994.73
2023-06-02T01:14:10.359Z,994.72
2023-06-02T01:15:10.350Z,994.72
2023-06-02T01:16:10.365Z,994.75
2023-06-02T01:17:10.339Z,994.70
2023-06-02T01:18:10.305Z,994.72
2023-06-02T01:19:10.305Z,994.76
2023-06-02T01:20:10.294Z,994.72
2023-06-02T01:21:10.313Z,994.82
2023-06-02T01:22:10.286Z,994.79
2023-06-02T01:23:10.269Z,994.73
2023-06-02T01:24:10.264Z,994.67
2023-06-02T01:25:10.256Z,994.67
2023-06-02T01:26:10.803Z,994.68
2023-06-02T01:27:10.236Z,994.69
2023-06-02T01:28:10.225Z,994.70
2023-06-02T01:29:10.217Z,994.72
2023-06-02T01:30:10.234Z,994.66
2023-06-02T01:31:10.228Z,994.64
2023-06-02T01:32:10.255Z,994.74
2023-06-02T01:33:10.266Z,994.76
2023-06-02T01:34:10.182Z,994.75
2023-06-02T01:35:10.202Z,994.82
2023-06-02T01:36:10.162Z,994.82
2023-06-02T01:37:10.154Z,994.78
2023-06-02T01:38:10.153Z,994.81
2023-06-02T01:39:10.140Z,994.75
2023-06-02T01:40:10.154Z,994.74
2023-06-02T01:41:10.129Z,994.66
2023-06-02T01:42:10.118Z,994.71
2023-06-02T01:43:10.113Z,994.74
2023-06-02T01:44:10.128Z,994.74
2023-06-02T01:45:10.122Z,994.72
2023-06-02T01:46:10.101Z,994.70
2023-06-02T01:47:10.077Z,994.69
2023-06-02T01:48:10.075Z,994.75
2023-06-02T01:49:10.088Z,994.77
2023-06-02T01:50:10.060Z,994.71
2023-06-02T01:51:10.050Z,994.74
2023-06-02T01:52:10.040Z,994.72
2023-06-02T01:53:10.034Z,994.70
2023-06-02T01:54:10.052Z,994.71
2023-06-02T01:55:10.021Z,994.69
2023-06-02T01:56:10.008Z,994.67
2023-06-02T01:57:10.006Z,994.74
2023-06-02T01:58:09.983Z,994.70
2023-06-02T01:59:11.011Z,994.68
2023-06-02T02:00:09.971Z,994.75
2023-06-02T02:01:10.000Z,994.66
2023-06-02T02:02:09.961Z,994.70
2023-06-02T02:03:10.037Z,994.69
2023-06-02T02:04:09.965Z,994.74
2023-06-02T02:05:09.929Z,994.70
2023-06-02T02:06:10.937Z,994.72
2023-06-02T02:07:09.919Z,994.76
2023-06-02T02:08:09.935Z,994.76
2023-06-02T02:09:09.899Z,994.78
2023-06-02T02:10:09.896Z,994.72
2023-06-02T02:11:09.884Z,994.74
2023-06-02T02:12:09.924Z,994.70
2023-06-02T02:13:09.905Z,994.75
2023-06-02T02:14:09.870Z,994.73
2023-06-02T02:15:09.870Z,994.70
2023-06-02T02:16:09.866Z,994.75
2023-06-02T02:17:09.844Z,994.74
2023-06-02T02:18:09.857Z,994.77
2023-06-02T02:19:09.827Z,994.87
2023-06-02T02:20:09.834Z,994.77
2023-06-02T02:21:09.812Z,994.87
2023-06-02T02:22:09.841Z,994.86
2023-06-02T02:23:09.835Z,994.88
2023-06-02T02:24:09.806Z,994.82
2023-06-02T02:25:09.782Z,994.88
2023-06-02T02:26:09.781Z,994.84
2023-06-02T02:27:09.786Z,994.85
2023-06-02T02:28:09.749Z,994.86
2023-06-02T02:29:09.745Z,994.82
2023-06-02T02:30:09.749Z,994.85
2023-06-02T02:31:09.775Z,994.87
2023-06-02T02:32:09.745Z,994.92
2023-06-02T02:33:09.774Z,994.89
2023-06-02T02:34:09.706Z,994.91
2023-06-02T02:35:09.698Z,994.91
2023-06-02T02:36:09.777Z,994.91
2023-06-02T02:37:09.709Z,994.92
2023-06-02T02:38:09.676Z,994.89
2023-06-02T02:39:09.664Z,994.88
2023-06-02T02:40:09.658Z,994.98
2023-06-02T02:41:09.673Z,994.94
2023-06-02T02:42:09.648Z,994.95
2023-06-02T02:43:09.645Z,994.91
2023-06-02T02:44:09.623Z,994.96
2023-06-02T02:45:09.761Z,994.91
2023-06-02T02:46:09.663Z,994.96
2023-06-02T02:47:09.611Z,994.95
2023-06-02T02:48:09.609Z,995.01
2023-06-02T02:49:09.586Z,994.94
2023-06-02T02:50:09.613Z,995.03
2023-06-02T02:51:09.600Z,994.92
2023-06-02T02:52:09.564Z,994.98
2023-06-02T02:53:09.558Z,994.98
2023-06-02T02:54:09.556Z,995.00
2023-06-02T02:55:09.562Z,995.01
2023-06-02T02:56:09.539Z,995.00
2023-06-02T02:57:09.532Z,995.01
2023-06-02T02:58:09.524Z,995.02
2023-06-02T02:59:09.533Z,995.06
2023-06-02T03:00:09.537Z,995.06
2023-06-02T03:01:09.529Z,995.00
2023-06-02T03:02:09.497Z,995.04
2023-06-02T03:03:09.483Z,995.06
2023-06-02T03:04:09.540Z,994.94
2023-06-02T03:05:09.486Z,995.03
2023-06-02T03:06:09.459Z,994.94
2023-06-02T03:07:11.421Z,994.95
2023-06-02T03:08:09.447Z,994.95
2023-06-02T03:09:09.468Z,995.04
2023-06-02T03:10:09.440Z,994.90
2023-06-02T03:11:09.419Z,994.95
2023-06-02T03:12:09.442Z,995.02
2023-06-02T03:13:09.401Z,994.98
2023-06-02T03:14:09.419Z,994.98
2023-06-02T03:15:09.387Z,995.03
2023-06-02T03:16:09.392Z,995.05
2023-06-02T03:17:09.497Z,995.00
2023-06-02T03:18:09.413Z,995.00
2023-06-02T03:19:09.383Z,994.92
2023-06-02T03:20:09.410Z,995.09
2023-06-02T03:21:09.385Z,995.11
2023-06-02T03:22:09.416Z,995.07
2023-06-02T03:23:09.374Z,995.09
2023-06-02T03:24:09.313Z,995.07
2023-06-02T03:25:09.308Z,995.14
2023-06-02T03:26:09.299Z,995.10
2023-06-02T03:27:09.289Z,995.14
2023-06-02T03:28:09.319Z,995.12
2023-06-02T03:29:09.285Z,995.07
2023-06-02T03:30:09.277Z,995.13
2023-06-02T03:31:09.287Z,995.23
2023-06-02T03:32:09.285Z,995.16
2023-06-02T03:33:09.365Z,995.20
2023-06-02T03:34:09.242Z,995.12
2023-06-02T03:35:09.240Z,995.19
2023-06-02T03:36:09.286Z,995.23
2023-06-02T03:37:09.271Z,995.16
2023-06-02T03:38:09.218Z,995.19
2023-06-02T03:39:09.249Z,995.18
2023-06-02T03:40:09.209Z,995.17
2023-06-02T03:41:09.192Z,995.23
2023-06-02T03:42:09.210Z,995.17
2023-06-02T03:43:09.185Z,995.22
2023-06-02T03:44:09.175Z,995.23
2023-06-02T03:45:09.161Z,995.21
2023-06-02T03:46:09.183Z,995.22
2023-06-02T03:47:09.170Z,995.21
2023-06-02T03:48:09.150Z,995.18
2023-06-02T03:49:09.135Z,995.29
2023-06-02T03:50:09.129Z,995.29
2023-06-02T03:51:10.588Z,995.24
2023-06-02T03:52:10.110Z,995.37
2023-06-02T03:53:09.110Z,995.28
2023-06-02T03:54:09.093Z,995.37
2023-06-02T03:55:09.090Z,995.38
2023-06-02T03:56:09.105Z,995.30
2023-06-02T03:57:09.081Z,995.28
2023-06-02T03:58:09.067Z,995.33
2023-06-02T03:59:09.063Z,995.21
2023-06-02T04:00:09.081Z,995.32
2023-06-02T04:01:09.075Z,995.33
2023-06-02T04:02:09.110Z,995.30
2023-06-02T04:03:09.066Z,995.34
2023-06-02T04:04:09.143Z,995.34
2023-06-02T04:05:09.088Z,995.32
2023-06-02T04:06:09.031Z,995.33
2023-06-02T04:07:08.988Z,995.33
2023-06-02T04:08:08.988Z,995.32
2023-06-02T04:09:08.983Z,995.37
2023-06-02T04:10:09.006Z,995.37
2023-06-02T04:11:08.964Z,995.35
2023-06-02T04:12:08.963Z,995.33
2023-06-02T04:13:08.953Z,995.33
2023-06-02T04:14:08.963Z,995.38
2023-06-02T04:15:08.960Z,995.40
2023-06-02T04:16:08.961Z,995.40
2023-06-02T04:17:08.927Z,995.44
2023-06-02T04:18:08.909Z,995.51
2023-06-02T04:19:08.927Z,995.48
2023-06-02T04:20:08.897Z,995.48
2023-06-02T04:21:08.888Z,995.50
2023-06-02T04:22:08.904Z,995.47
2023-06-02T04:23:08.872Z,995.45
2023-06-02T04:24:08.892Z,995.50
2023-06-02T04:25:08.878Z,995.42
2023-06-02T04:26:11.133Z,995.49
2023-06-02T04:27:09.848Z,995.57
2023-06-02T04:28:08.863Z,995.53
2023-06-02T04:29:08.853Z,995.54
2023-06-02T04:30:08.821Z,995.52
2023-06-02T04:31:08.806Z,995.46
2023-06-02T04:32:08.920Z,995.56
2023-06-02T04:33:08.860Z,995.51
2023-06-02T04:34:08.794Z,995.52
2023-06-02T04:35:08.781Z,995.49
2023-06-02T04:36:08.808Z,995.59
2023-06-02T04:37:08.786Z,995.59
2023-06-02T04:38:08.778Z,995.58
2023-06-02T04:39:08.752Z,995.54
2023-06-02T04:40:08.736Z,995.61
2023-06-02T04:41:08.750Z,995.63
2023-06-02T04:42:08.720Z,995.55
2023-06-02T04:43:08.744Z,995.56
2023-06-02T04:44:08.702Z,995.56
2023-06-02T04:45:08.696Z,995.63
2023-06-02T04:46:08.706Z,995.63
2023-06-02T04:47:08.707Z,995.60
2023-06-02T04:48:08.707Z,995.69
2023-06-02T04:49:08.686Z,995.66
2023-06-02T04:50:08.659Z,995.73
2023-06-02T04:51:08.666Z,995.71
2023-06-02T04:52:08.676Z,995.77
2023-06-02T04:53:08.639Z,995.66
2023-06-02T04:54:08.629Z,995.77
2023-06-02T04:55:08.622Z,995.75
2023-06-02T04:56:08.618Z,995.77
2023-06-02T04:57:08.662Z,995.83
2023-06-02T04:58:08.606Z,995.79
2023-06-02T04:59:08.595Z,995.76
2023-06-02T05:00:08.578Z,995.82
2023-06-02T05:01:08.598Z,995.72
2023-06-02T05:02:08.645Z,995.76
2023-06-02T05:03:08.570Z,995.78
2023-06-02T05:04:08.562Z,995.68
2023-06-02T05:05:08.553Z,995.75
2023-06-02T05:06:08.800Z,995.73
2023-06-02T05:07:08.574Z,995.75
2023-06-02T05:08:08.547Z,995.80
2023-06-02T05:09:08.525Z,995.76
2023-06-02T05:10:08.496Z,995.81
2023-06-02T05:11:08.525Z,995.77
2023-06-02T05:12:08.493Z,995.72
2023-06-02T05:13:08.495Z,995.74
2023-06-02T05:14:08.482Z,995.80
2023-06-02T05:15:08.468Z,995.74
2023-06-02T05:16:08.520Z,995.80
2023-06-02T05:17:08.456Z,995.78
2023-06-02T05:18:08.504Z,995.79
2023-06-02T05:19:08.431Z,995.86
2023-06-02T05:20:08.494Z,995.79
2023-06-02T05:21:08.453Z,995.77
2023-06-02T05:22:08.414Z,995.83
2023-06-02T05:23:08.407Z,995.79
2023-06-02T05:24:08.392Z,995.90
2023-06-02T05:25:11.142Z,995.81
2023-06-02T05:26:08.377Z,995.82
2023-06-02T05:27:08.371Z,995.89
2023-06-02T05:28:08.360Z,995.82
2023-06-02T05:29:08.353Z,995.88
2023-06-02T05:30:08.385Z,995.88
2023-06-02T05:31:08.350Z,995.85
2023-06-02T05:32:08.331Z,995.85
2023-06-02T05:33:08.326Z,995.89
2023-06-02T05:34:08.337Z,995.82
2023-06-02T05:35:08.329Z,995.85
2023-06-02T05:36:08.305Z,995.88
2023-06-02T05:37:08.293Z,995.92
2023-06-02T05:38:08.289Z,995.88
2023-06-02T05:39:08.310Z,995.89
2023-06-02T05:40:08.273Z,995.96
2023-06-02T05:41:08.267Z,995.89
2023-06-02T05:42:08.256Z,995.89
2023-06-02T05:43:08.257Z,995.95
2023-06-02T05:44:08.260Z,995.96
2023-06-02T05:45:08.237Z,995.85
2023-06-02T05:46:08.462Z,995.90
2023-06-02T05:47:08.214Z,995.88
2023-06-02T05:48:08.278Z,996.00
2023-06-02T05:49:08.222Z,995.91
2023-06-02T05:50:09.132Z,995.96
2023-06-02T05:51:08.187Z,996.01
2023-06-02T05:52:08.176Z,996.05
2023-06-02T05:53:09.200Z,995.97
2023-06-02T05:54:08.165Z,996.02
2023-06-02T05:55:08.153Z,996.03
2023-06-02T05:56:08.158Z,996.00
2023-06-02T05:57:08.147Z,996.00
2023-06-02T05:58:08.171Z,996.02
2023-06-02T05:59:08.129Z,996.05
2023-06-02T06:00:08.126Z,996.11
2023-06-02T06:01:08.116Z,996.12
2023-06-02T06:02:08.128Z,996.17
2023-06-02T06:03:08.321Z,996.03
2023-06-02T06:04:08.121Z,996.03
2023-06-02T06:05:08.082Z,996.02
2023-06-02T06:06:08.073Z,996.06
2023-06-02T06:07:08.101Z,996.11
2023-06-02T06:08:08.095Z,996.04
2023-06-02T06:09:08.050Z,996.08
2023-06-02T06:10:08.048Z,996.09
2023-06-02T06:11:08.057Z,996.07
2023-06-02T06:12:08.048Z,996.09
2023-06-02T06:13:08.011Z,996.07
2023-06-02T06:14:08.004Z,996.02
2023-06-02T06:15:07.997Z,996.04
2023-06-02T06:16:08.086Z,996.10
2023-06-02T06:17:08.016Z,996.09
2023-06-02T06:18:08.014Z,996.19
2023-06-02T06:19:07.975Z,996.19
2023-06-02T06:20:07.968Z,996.16
2023-06-02T06:21:07.979Z,996.17
2023-06-02T06:22:08.083Z,996.21
2023-06-02T06:23:07.948Z,996.11
2023-06-02T06:24:07.949Z,996.08
2023-06-02T06:25:07.922Z,996.18
2023-06-02T06:26:07.969Z,996.14
2023-06-02T06:27:10.335Z,996.11
2023-06-02T06:28:07.912Z,996.18
2023-06-02T06:29:07.900Z,996.24
2023-06-02T06:30:07.886Z,996.22
2023-06-02T06:31:07.940Z,996.18
2023-06-02T06:32:07.891Z,996.26
2023-06-02T06:33:07.871Z,996.23
2023-06-02T06:34:07.862Z,996.26
2023-06-02T06:35:07.877Z,996.24
2023-06-02T06:36:07.864Z,996.26
2023-06-02T06:37:07.838Z,996.27
2023-06-02T06:38:07.831Z,996.27
2023-06-02T06:39:07.825Z,996.28
2023-06-02T06:40:07.838Z,996.32
2023-06-02T06:41:07.808Z,996.37
2023-06-02T06:42:07.799Z,996.29
2023-06-02T06:43:23.030Z,996.32
2023-06-02T06:44:09.799Z,996.45
2023-06-02T06:45:07.821Z,996.40
2023-06-02T06:46:07.773Z,996.35
2023-06-02T06:47:07.770Z,996.50
2023-06-02T06:48:07.902Z,996.44
2023-06-02T06:49:07.775Z,996.52
2023-06-02T06:50:07.766Z,996.40
2023-06-02T06:51:07.722Z,996.70
2023-06-02T06:52:07.728Z,996.57
2023-06-02T06:53:07.721Z,996.52
2023-06-02T06:54:08.654Z,996.68
2023-06-02T06:55:08.695Z,996.47
2023-06-02T06:56:07.711Z,996.55
2023-06-02T06:57:07.690Z,996.51
2023-06-02T06:58:07.677Z,996.51
2023-06-02T06:59:07.702Z,996.61
2023-06-02T07:00:07.657Z,996.44
2023-06-02T07:01:07.651Z,996.63
2023-06-02T07:02:07.808Z,996.47
2023-06-02T07:03:07.773Z,996.46
2023-06-02T07:04:07.732Z,996.53
2023-06-02T07:05:07.626Z,996.58
2023-06-02T07:06:07.616Z,996.53
2023-06-02T07:07:07.610Z,996.56
2023-06-02T07:08:07.629Z,996.45
2023-06-02T07:09:07.616Z,996.45
2023-06-02T07:10:07.583Z,996.57
2023-06-02T07:11:07.582Z,996.49
2023-06-02T07:12:07.577Z,996.54
2023-06-02T07:13:07.589Z,996.58
2023-06-02T07:14:16.262Z,996.51
2023-06-02T07:15:09.547Z,996.49
2023-06-02T07:16:07.550Z,996.48
2023-06-02T07:17:07.553Z,996.58
2023-06-02T07:18:07.661Z,996.50
2023-06-02T07:19:07.519Z,996.57
2023-06-02T07:20:07.513Z,996.50
2023-06-02T07:21:07.499Z,996.57
2023-06-02T07:22:07.609Z,996.56
2023-06-02T07:23:07.491Z,996.51
2023-06-02T07:24:07.492Z,996.50
2023-06-02T07:25:07.479Z,996.70
2023-06-02T07:26:07.471Z,996.55
2023-06-02T07:27:07.485Z,996.63
2023-06-02T07:28:07.448Z,996.61
2023-06-02T07:29:07.450Z,996.64
2023-06-02T07:30:07.445Z,996.59
2023-06-02T07:31:10.977Z,996.63
2023-06-02T07:32:08.561Z,996.63
2023-06-02T07:33:07.421Z,996.60
2023-06-02T07:34:07.400Z,996.59
2023-06-02T07:35:07.395Z,996.63
2023-06-02T07:36:07.445Z,996.78
2023-06-02T07:37:07.374Z,996.67
2023-06-02T07:38:07.367Z,996.62
2023-06-02T07:39:07.362Z,996.64
2023-06-02T07:40:07.351Z,996.60
2023-06-02T07:41:07.368Z,996.60
2023-06-02T07:42:07.332Z,996.60
2023-06-02T07:43:07.325Z,996.59
2023-06-02T07:44:07.322Z,996.56
2023-06-02T07:45:07.332Z,996.55
2023-06-02T07:46:07.655Z,996.64
2023-06-02T07:47:07.352Z,996.60
2023-06-02T07:48:07.302Z,996.61
2023-06-02T07:49:07.270Z,996.62
2023-06-02T07:50:08.296Z,996.59
2023-06-02T07:51:07.268Z,996.65
2023-06-02T07:52:08.272Z,996.62
2023-06-02T07:53:07.254Z,996.57
2023-06-02T07:54:07.253Z,996.68
2023-06-02T07:55:07.262Z,996.61
2023-06-02T07:56:07.584Z,996.72
2023-06-02T07:57:08.221Z,996.69
2023-06-02T07:58:07.210Z,996.65
2023-06-02T07:59:07.198Z,996.71
2023-06-02T08:00:07.215Z,996.66
2023-06-02T08:01:07.486Z,996.62
2023-06-02T08:02:07.197Z,996.67
2023-06-02T08:03:07.319Z,996.70
2023-06-02T08:04:07.414Z,996.61
2023-06-02T08:05:07.200Z,996.64
2023-06-02T08:06:07.152Z,996.61
2023-06-02T08:07:07.146Z,996.57
2023-06-02T08:08:07.929Z,996.61
2023-06-02T08:09:07.153Z,996.63
2023-06-02T08:10:07.145Z,996.58
2023-06-02T08:11:07.111Z,996.74
2023-06-02T08:12:07.094Z,996.70
2023-06-02T08:13:07.090Z,996.63
2023-06-02T08:14:07.100Z,996.68
2023-06-02T08:15:07.088Z,996.65
2023-06-02T08:17:08.058Z,996.63
2023-06-02T08:18:07.158Z,996.65
2023-06-02T08:19:07.236Z,996.67
2023-06-02T08:20:07.036Z,996.67
2023-06-02T08:21:07.024Z,996.66
2023-06-02T08:22:07.116Z,996.76
2023-06-02T08:23:07.047Z,996.65
2023-06-02T08:24:07.007Z,996.60
2023-06-02T08:25:06.990Z,996.71
2023-06-02T08:26:06.985Z,996.75
2023-06-02T08:27:06.974Z,996.65
2023-06-02T08:28:06.989Z,996.68
2023-06-02T08:29:06.958Z,996.65
2023-06-02T08:30:06.947Z,996.68
2023-06-02T08:31:06.993Z,996.77
2023-06-02T08:32:08.072Z,996.72
2023-06-02T08:33:07.010Z,996.76
2023-06-02T08:34:06.929Z,996.69
2023-06-02T08:35:06.927Z,996.74
2023-06-02T08:36:06.960Z,996.78
2023-06-02T08:37:06.927Z,996.76
2023-06-02T08:38:06.913Z,996.75
2023-06-02T08:39:06.879Z,996.74
2023-06-02T08:40:06.967Z,996.88
2023-06-02T08:41:07.065Z,996.72
2023-06-02T08:42:06.881Z,996.72
2023-06-02T08:43:06.860Z,996.69
2023-06-02T08:44:06.862Z,996.69
2023-06-02T08:45:06.834Z,996.68
2023-06-02T08:46:06.883Z,996.62
2023-06-02T08:47:06.843Z,996.69
2023-06-02T08:48:06.839Z,996.70
2023-06-02T08:49:06.804Z,996.68
2023-06-02T08:50:06.806Z,996.63
2023-06-02T08:51:06.788Z,996.59
2023-06-02T08:52:06.806Z,996.71
2023-06-02T08:53:06.768Z,996.73
2023-06-02T08:54:06.761Z,996.72
2023-06-02T08:55:06.801Z,996.71
2023-06-02T08:56:07.043Z,996.72
2023-06-02T08:57:06.774Z,996.75
2023-06-02T08:58:06.737Z,996.79
2023-06-02T08:59:06.732Z,996.64
2023-06-02T09:00:06.729Z,996.69
2023-06-02T09:01:06.739Z,996.68
2023-06-02T09:02:06.716Z,996.73
2023-06-02T09:03:06.730Z,996.65
2023-06-02T09:04:08.464Z,996.63
2023-06-02T09:05:07.764Z,996.67
2023-06-02T09:06:06.920Z,996.57
2023-06-02T09:07:06.674Z,996.60
2023-06-02T09:08:06.668Z,996.62
2023-06-02T09:09:06.655Z,996.61
2023-06-02T09:10:06.680Z,996.57
2023-06-02T09:11:06.672Z,996.64
2023-06-02T09:12:06.622Z,996.58
2023-06-02T09:13:06.619Z,996.53
2023-06-02T09:14:06.618Z,996.56
2023-06-02T09:15:07.411Z,996.54
2023-06-02T09:16:06.935Z,996.62
2023-06-02T09:17:06.579Z,996.61
2023-06-02T09:18:06.630Z,996.59
2023-06-02T09:19:06.581Z,996.55
2023-06-02T09:20:06.585Z,996.65
2023-06-02T09:21:06.963Z,996.71
2023-06-02T09:22:06.653Z,996.64
2023-06-02T09:23:06.539Z,996.50
2023-06-02T09:25:07.555Z,996.66
2023-06-02T09:26:09.970Z,996.64
2023-06-02T09:27:08.512Z,996.61
2023-06-02T09:28:06.508Z,996.58
2023-06-02T09:29:06.528Z,996.60
2023-06-02T09:30:06.500Z,996.66
2023-06-02T09:31:06.688Z,996.60
2023-06-02T09:32:06.527Z,996.57
2023-06-02T09:33:06.525Z,996.52
2023-06-02T09:34:06.493Z,996.57
2023-06-02T09:35:06.465Z,996.59
2023-06-02T09:36:06.720Z,996.62
2023-06-02T09:37:06.440Z,996.60
2023-06-02T09:38:06.431Z,996.58
2023-06-02T09:39:06.441Z,996.59
2023-06-02T09:40:06.456Z,996.63
2023-06-02T09:41:06.407Z,996.56
2023-06-02T09:42:06.409Z,996.57
2023-06-02T09:43:06.411Z,996.62
2023-06-02T09:44:06.414Z,996.58
2023-06-02T09:45:06.388Z,996.53
2023-06-02T09:46:06.679Z,996.50
2023-06-02T09:47:06.479Z,996.50
2023-06-02T09:48:06.458Z,996.46
2023-06-02T09:49:06.467Z,996.57
2023-06-02T09:50:06.383Z,996.52
2023-06-02T09:51:06.327Z,996.51
2023-06-02T09:52:06.319Z,996.48
2023-06-02T09:53:06.344Z,996.42
2023-06-02T09:54:06.311Z,996.44
2023-06-02T09:55:06.297Z,996.38
2023-06-02T09:56:06.581Z,996.39
2023-06-02T09:57:06.307Z,996.46
2023-06-02T09:58:06.303Z,996.43
2023-06-02T09:59:06.291Z,996.39
2023-06-02T10:00:06.266Z,996.43
2023-06-02T10:01:06.554Z,996.45
2023-06-02T10:02:06.283Z,996.49
2023-06-02T10:03:06.333Z,996.49
2023-06-02T10:04:06.307Z,996.45
2023-06-02T10:05:06.219Z,996.43
2023-06-02T10:06:06.381Z,996.45
2023-06-02T10:07:06.231Z,996.43
2023-06-02T10:08:06.199Z,996.47
2023-06-02T10:09:06.216Z,996.40
2023-06-02T10:10:06.191Z,996.39
2023-06-02T10:11:06.342Z,996.37
2023-06-02T10:12:06.224Z,996.38
2023-06-02T10:13:06.178Z,996.37
2023-06-02T10:14:06.153Z,996.42
2023-06-02T10:15:06.152Z,996.54
2023-06-02T10:16:06.187Z,996.38
2023-06-02T10:17:06.128Z,996.34
2023-06-02T10:18:06.142Z,996.39
2023-06-02T10:19:06.115Z,996.32
2023-06-02T10:20:06.170Z,996.33
2023-06-02T10:21:06.408Z,996.47
2023-06-02T10:22:06.168Z,996.42
2023-06-02T10:23:06.136Z,996.40
2023-06-02T10:24:06.276Z,996.53
2023-06-02T10:25:06.097Z,996.37
2023-06-02T10:26:06.095Z,996.41
2023-06-02T10:27:06.072Z,996.36
2023-06-02T10:28:06.052Z,996.35
2023-06-02T10:29:06.035Z,996.38
2023-06-02T10:30:07.066Z,996.37
2023-06-02T10:31:06.488Z,996.41
2023-06-02T10:32:06.018Z,996.42
2023-06-02T10:33:06.069Z,996.43
2023-06-02T10:34:06.009Z,996.37
2023-06-02T10:35:06.027Z,996.34
2023-06-02T10:36:06.581Z,996.37
2023-06-02T10:37:05.982Z,996.34
2023-06-02T10:38:05.981Z,996.32
2023-06-02T10:39:05.975Z,996.36
2023-06-02T10:40:06.046Z,996.28
2023-06-02T10:41:06.150Z,996.26
2023-06-02T10:42:05.946Z,996.30
2023-06-02T10:43:05.942Z,996.36
2023-06-02T10:44:05.966Z,996.37
2023-06-02T10:45:05.943Z,996.31
2023-06-02T10:46:05.903Z,996.33
2023-06-02T10:47:06.052Z,996.25
2023-06-02T10:48:05.965Z,996.24
2023-06-02T10:49:05.908Z,996.38
2023-06-02T10:50:09.301Z,996.25
2023-06-02T10:51:07.886Z,996.28
2023-06-02T10:52:05.865Z,996.20
2023-06-02T10:53:05.869Z,996.13
2023-06-02T10:54:05.942Z,996.23
2023-06-02T10:55:05.844Z,996.15
2023-06-02T10:56:05.828Z,996.17
2023-06-02T10:57:05.822Z,996.25
2023-06-02T10:58:05.838Z,996.29
2023-06-02T10:59:05.832Z,996.19
2023-06-02T11:00:05.799Z,996.10
2023-06-02T11:01:06.094Z,996.16
2023-06-02T11:02:05.820Z,996.14
2023-06-02T11:03:05.961Z,996.16
2023-06-02T11:04:05.872Z,996.19
2023-06-02T11:05:05.762Z,996.15
2023-06-02T11:06:05.751Z,996.20
2023-06-02T11:07:05.744Z,996.15
2023-06-02T11:08:06.054Z,996.11
2023-06-02T11:09:05.734Z,996.11
2023-06-02T11:10:05.727Z,996.08
2023-06-02T11:11:05.712Z,996.12
2023-06-02T11:12:06.052Z,996.05
2023-06-02T11:13:06.049Z,996.07
2023-06-02T11:14:06.696Z,996.08
2023-06-02T11:15:05.814Z,996.07
2023-06-02T11:16:05.673Z,996.06
2023-06-02T11:17:06.684Z,996.06
2023-06-02T11:18:05.701Z,996.06
2023-06-02T11:19:05.660Z,996.00
2023-06-02T11:20:05.638Z,995.98
2023-06-02T11:21:05.721Z,996.05
2023-06-02T11:22:05.734Z,996.06
2023-06-02T11:23:05.632Z,995.98
2023-06-02T11:24:05.617Z,995.96
2023-06-02T11:25:05.605Z,995.97
2023-06-02T11:26:05.626Z,995.93
2023-06-02T11:27:05.612Z,995.93
2023-06-02T11:28:05.583Z,995.88
2023-06-02T11:29:05.572Z,995.97
2023-06-02T11:30:05.570Z,995.96
2023-06-02T11:31:06.132Z,995.93
2023-06-02T11:32:05.557Z,995.86
2023-06-02T11:33:05.590Z,995.85
2023-06-02T11:34:05.533Z,995.86
2023-06-02T11:35:05.536Z,995.96
2023-06-02T11:36:05.549Z,995.98
2023-06-02T11:37:05.517Z,995.92
2023-06-02T11:38:05.507Z,995.88
2023-06-02T11:39:05.491Z,995.89
2023-06-02T11:40:05.573Z,995.88
2023-06-02T11:41:05.742Z,995.96
2023-06-02T11:42:05.482Z,995.95
2023-06-02T11:43:05.514Z,995.93
2023-06-02T11:44:05.524Z,995.95
2023-06-02T11:45:05.495Z,995.91
2023-06-02T11:46:05.447Z,995.93
2023-06-02T11:47:05.438Z,995.79
2023-06-02T11:48:05.472Z,995.96
2023-06-02T11:49:05.441Z,995.92
2023-06-02T11:50:05.445Z,995.90
2023-06-02T11:51:05.405Z,995.86
2023-06-02T11:52:05.429Z,995.84
2023-06-02T11:53:05.411Z,995.93
2023-06-02T11:54:05.401Z,995.92
2023-06-02T11:55:05.513Z,995.85
2023-06-02T11:56:05.377Z,995.87
2023-06-02T11:57:05.351Z,995.75
2023-06-02T11:58:05.350Z,995.85
2023-06-02T11:59:05.362Z,995.91
2023-06-02T12:00:05.329Z,995.90
2023-06-02T12:01:05.328Z,995.89
2023-06-02T12:02:05.324Z,995.78
2023-06-02T12:03:05.423Z,995.74
2023-06-02T12:04:05.666Z,995.83
2023-06-02T12:05:05.418Z,995.74
2023-06-02T12:06:05.286Z,995.70
2023-06-02T12:07:05.276Z,995.72
2023-06-02T12:08:05.290Z,995.74
2023-06-02T12:09:05.279Z,995.62
2023-06-02T12:10:05.280Z,995.67
2023-06-02T12:11:05.466Z,995.68
2023-06-02T12:12:05.231Z,995.74
2023-06-02T12:13:05.252Z,995.74
2023-06-02T12:14:05.215Z,995.70
2023-06-02T12:15:05.210Z,995.62
2023-06-02T12:16:05.202Z,995.62
2023-06-02T12:17:05.244Z,995.71
2023-06-02T12:18:05.282Z,995.75
2023-06-02T12:19:05.178Z,995.65
2023-06-02T12:20:05.216Z,995.73
2023-06-02T12:21:05.478Z,995.67
2023-06-02T12:22:05.246Z,995.71
2023-06-02T12:23:05.171Z,995.66
2023-06-02T12:24:05.139Z,995.56
2023-06-02T12:25:05.129Z,995.62
2023-06-02T12:26:05.126Z,995.67
2023-06-02T12:27:05.158Z,995.66
2023-06-02T12:28:05.112Z,995.70
2023-06-02T12:29:05.109Z,995.60
2023-06-02T12:30:05.088Z,995.69